CMA CGM Columba — 2DBC9 — position and weather

sailwx.info

Track history (hours):
 
Tides and Currents Weather Stations Pressure Air Temp Water Temp Dewpoint Dewpoint Depression Visibility Wind Speed Wind Dir Waves Ship Positions

CMA CGM Columba

Last reported at 2015-Apr-20 00:31 UTC. Time now 2015-Apr-20 00:46 UTC.
Position N 49°27' E 000°10'.

Length 363 m; draft 14.1 m.

Type: Ship (hazmat cat A). MMSI: 235077448.

Date/timePositionNaut miles runAvg speedWind from/ knotsBaromVisibWave heightAir tempDewpointWater temp
2015-Apr-20 00:31N 49°27' E 000°10'0 0.0
2015-Apr-19 23:31N 49°27' E 000°10'0 0.0
2015-Apr-19 22:31N 49°27' E 000°10'0 0.1
2015-Apr-19 21:33N 49°27' E 000°10'3 2.6
2015-Apr-19 20:33N 49°28' E 000°06'1111.0
2015-Apr-19 19:34N 49°32' W 000°10'7 6.6
2015-Apr-19 18:33N 49°35' W 000°18'1211.9
2015-Apr-19 17:33N 49°46' W 000°25'1211.2
2015-Apr-19 16:27N 49°58' W 000°33'1910.3
2015-Apr-19 14:33N 50°16' W 000°45'1111.2
2015-Apr-19 13:33N 50°26' W 000°51'1110.7
2015-Apr-19 12:33N 50°36' W 000°57'9 8.9
2015-Apr-19 11:33N 50°44' W 001°04'1010.2
2015-Apr-19 10:34N 50°49' W 001°18'7 7.1
2015-Apr-19 09:33N 50°54' W 001°25'1 0.8
2015-Apr-19 08:32N 50°54' W 001°27'0 0.0
2015-Apr-19 07:31N 50°54' W 001°27'0 0.0
2015-Apr-19 06:31N 50°54' W 001°27'0 0.0
2015-Apr-19 05:31N 50°54' W 001°27'0 0.0
2015-Apr-19 04:31N 50°54' W 001°27'0 0.0
2015-Apr-19 03:31N 50°54' W 001°27'0 0.0
2015-Apr-19 02:32N 50°54' W 001°27'0 0.0
2015-Apr-19 01:28N 50°54' W 001°27'0 0.0
2015-Apr-19 00:32N 50°54' W 001°27'0 0.0
2015-Apr-18 23:31N 50°54' W 001°27'0 0.0
2015-Apr-18 22:31N 50°54' W 001°27'0 0.0
2015-Apr-18 21:31N 50°54' W 001°27'0 0.0
2015-Apr-18 20:32N 50°54' W 001°27'0 0.0
2015-Apr-18 19:31N 50°54' W 001°27'0 0.0
2015-Apr-18 18:32N 50°54' W 001°27'0 0.0
2015-Apr-18 17:31N 50°54' W 001°27'0 0.0
2015-Apr-18 16:31N 50°54' W 001°27'0 0.0
2015-Apr-18 15:29N 50°54' W 001°27'0 0.0
2015-Apr-18 14:32N 50°54' W 001°27'0 0.2
2015-Apr-18 13:34N 50°54' W 001°26'7 6.8
2015-Apr-18 12:34N 50°50' W 001°19'1111.4
2015-Apr-18 11:34N 50°44' W 001°03'1110.8
2015-Apr-18 10:34N 50°35' W 000°53'1918.7
2015-Apr-18 09:33N 50°32' W 000°24'2618.4
2015-Apr-18 08:09N 50°36' E 000°17'1016.3
2015-Apr-18 07:33N 50°38' E 000°31'1716.8
2015-Apr-18 06:33N 50°47' E 000°54'1817.9
2015-Apr-18 05:34N 50°58' E 001°16'1919.4
2015-Apr-18 04:34N 51°10' E 001°40'1818.4
2015-Apr-18 03:33N 51°25' E 001°59'1817.8
2015-Apr-18 02:33N 51°22' E 002°27'1313.1
2015-Apr-18 01:33N 51°25' E 002°47'1414.0
2015-Apr-18 00:34N 51°23' E 003°10'3 3.0
2015-Apr-17 23:33N 51°20' E 003°12'0 0.0
2015-Apr-17 22:33N 51°20' E 003°12'0 0.0
2015-Apr-17 21:33N 51°20' E 003°12'0 0.0
2015-Apr-17 20:33N 51°20' E 003°12'0 0.0
2015-Apr-17 19:33N 51°20' E 003°12'0 0.0
2015-Apr-17 18:33N 51°20' E 003°12'0 0.0
2015-Apr-17 17:33N 51°20' E 003°12'0 0.0
2015-Apr-17 16:33N 51°20' E 003°12'0 0.0
2015-Apr-17 15:33N 51°20' E 003°12'0 0.0
2015-Apr-17 14:33N 51°20' E 003°12'0 0.0
2015-Apr-17 13:33N 51°20' E 003°12'0 0.0
2015-Apr-17 12:33N 51°20' E 003°12'0 0.0
2015-Apr-17 11:33N 51°20' E 003°12'0 0.0
2015-Apr-17 10:33N 51°20' E 003°12'0 0.0
2015-Apr-17 09:33N 51°20' E 003°12'0 0.0
2015-Apr-17 08:33N 51°20' E 003°12'1 1.3
2015-Apr-17 07:34N 51°22' E 003°12'9 9.2
2015-Apr-17 06:34N 51°27' E 002°60'2120.5
2015-Apr-17 05:33N 51°46' E 003°14'1919.1
2015-Apr-17 04:33N 52°03' E 003°29'1616.2
2015-Apr-17 03:33N 52°02' E 003°55'8 8.2
2015-Apr-17 02:33N 51°57' E 004°05'1 1.2
2015-Apr-17 01:31N 51°57' E 004°03'0 0.0
2015-Apr-17 00:31N 51°57' E 004°03'0 0.0
2015-Apr-16 23:31N 51°57' E 004°03'0 0.0
2015-Apr-16 22:31N 51°57' E 004°03'0 0.0
2015-Apr-16 21:31N 51°57' E 004°03'0 0.0
2015-Apr-16 20:33N 51°57' E 004°03'0 0.0
2015-Apr-16 19:31N 51°57' E 004°03'0 0.0
2015-Apr-16 18:28N 51°57' E 004°03'0 0.0
2015-Apr-16 17:31N 51°57' E 004°03'0 0.0
2015-Apr-16 16:28N 51°57' E 004°03'0 0.0
2015-Apr-16 15:31N 51°57' E 004°03'0 0.0
2015-Apr-16 14:31N 51°57' E 004°03'0 0.0
2015-Apr-16 13:31N 51°57' E 004°03'0 0.0
2015-Apr-16 12:31N 51°57' E 004°03'0 0.0
2015-Apr-16 11:31N 51°57' E 004°03'0 0.0
2015-Apr-16 10:31N 51°57' E 004°03'0 0.0
2015-Apr-16 09:31N 51°57' E 004°03'0 0.0
2015-Apr-16 08:31N 51°57' E 004°03'0 0.0
2015-Apr-16 07:31N 51°57' E 004°03'0 0.0
2015-Apr-16 06:33N 51°57' E 004°03'0 0.0
2015-Apr-16 05:31N 51°57' E 004°03'0 0.0
2015-Apr-16 04:31N 51°57' E 004°03'0 0.0
2015-Apr-16 03:31N 51°57' E 004°03'0 0.0
2015-Apr-16 02:31N 51°57' E 004°03'0 0.0
2015-Apr-16 01:31N 51°57' E 004°03'0 0.0
2015-Apr-16 00:28N 51°57' E 004°03'0 0.0
2015-Apr-15 23:31N 51°57' E 004°03'0 0.0
2015-Apr-15 22:28N 51°57' E 004°03'0 0.0
2015-Apr-15 21:31N 51°57' E 004°03'0 0.0
2015-Apr-15 20:25N 51°57' E 004°03'0 0.0
2015-Apr-15 19:31N 51°57' E 004°03'0 0.0
2015-Apr-15 18:31N 51°57' E 004°03'0 0.0
2015-Apr-15 17:28N 51°57' E 004°03'0 0.0
2015-Apr-15 16:31N 51°57' E 004°03'0 0.0
2015-Apr-15 15:31N 51°57' E 004°03'2 2.2
2015-Apr-15 14:33N 51°59' E 004°05'1111.5
2015-Apr-15 13:33N 52°02' E 003°47'1313.1
2015-Apr-15 12:33N 52°16' E 003°47'1515.0
2015-Apr-15 11:33N 52°30' E 003°51'1514.5
2015-Apr-15 10:33N 52°45' E 003°55'1413.7
2015-Apr-15 09:33N 52°58' E 004°01'1515.0
2015-Apr-15 08:33N 53°08' E 004°20'1515.2
2015-Apr-15 07:33N 53°21' E 004°31'1414.4
2015-Apr-15 06:33N 53°31' E 004°49'1414.2
2015-Apr-15 05:33N 53°37' E 005°11'1313.0
2015-Apr-15 04:34N 53°40' E 005°32'1312.9
2015-Apr-15 03:34N 53°44' E 005°53'1313.0
2015-Apr-15 02:33N 53°49' E 006°14'1413.7
2015-Apr-15 01:34N 53°52' E 006°36'1515.3
2015-Apr-15 00:34N 53°56' E 007°01'1918.9
2015-Apr-14 23:33N 54°01' E 007°32'1818.4
2015-Apr-14 22:33N 54°01' E 008°04'1312.6
2015-Apr-14 21:33N 53°59' E 008°25'1515.0
2015-Apr-14 20:33N 53°51' E 008°46'1414.2
2015-Apr-14 19:33N 53°53' E 009°10'1212.0
2015-Apr-14 18:33N 53°45' E 009°25'1111.1
2015-Apr-14 17:34N 53°36' E 009°36'1010.0
2015-Apr-14 16:34N 53°33' E 009°52'2 1.9
2015-Apr-14 15:33N 53°32' E 009°55'0 0.0
2015-Apr-14 14:33N 53°32' E 009°55'0 0.0
2015-Apr-14 13:33N 53°32' E 009°55'0 0.0
2015-Apr-14 12:33N 53°32' E 009°55'0 0.0
2015-Apr-14 11:33N 53°32' E 009°55'0 0.0
2015-Apr-14 10:27N 53°32' E 009°55'0 0.0
2015-Apr-14 09:33N 53°32' E 009°55'0 0.0
2015-Apr-14 08:33N 53°32' E 009°55'0 0.0
2015-Apr-14 07:33N 53°32' E 009°55'0 0.0
2015-Apr-14 06:33N 53°32' E 009°55'0 0.0
2015-Apr-14 05:33N 53°32' E 009°55'0 0.0
2015-Apr-14 04:33N 53°32' E 009°55'0 0.0
2015-Apr-14 03:32N 53°32' E 009°55'0 0.0
2015-Apr-14 01:18N 53°32' E 009°55'0 0.0
2015-Apr-14 00:33N 53°32' E 009°55'0 0.0
2015-Apr-13 23:33N 53°32' E 009°55'0 0.0
2015-Apr-13 22:30N 53°32' E 009°55'0 0.0
2015-Apr-13 21:33N 53°32' E 009°55'0 0.0
2015-Apr-13 20:33N 53°32' E 009°55'0 0.0
2015-Apr-13 19:33N 53°32' E 009°55'0 0.0
2015-Apr-13 18:33N 53°32' E 009°55'0 0.0
2015-Apr-13 17:33N 53°32' E 009°55'0 0.0
2015-Apr-13 16:33N 53°32' E 009°55'0 0.0
2015-Apr-13 15:27N 53°32' E 009°55'0 0.0
2015-Apr-13 14:33N 53°32' E 009°55'0 0.0
2015-Apr-13 13:33N 53°32' E 009°55'0 0.0
2015-Apr-13 12:33N 53°32' E 009°55'0 0.0
2015-Apr-13 11:30N 53°32' E 009°55'0 0.0
2015-Apr-13 10:33N 53°32' E 009°55'0 0.2
2015-Apr-13 09:33N 53°32' E 009°54'5 5.2
2015-Apr-13 08:34N 53°34' E 009°46'1010.0
2015-Apr-13 07:34N 53°39' E 009°31'1212.4
2015-Apr-13 06:34N 53°50' E 009°22'1110.5
2015-Apr-13 05:33N 53°52' E 009°04'1212.4
2015-Apr-13 04:33N 53°52' E 008°43'1514.8
2015-Apr-13 03:33N 53°59' E 008°21'1616.0
2015-Apr-13 02:33N 53°58' E 007°54'6 6.1
2015-Apr-13 01:33N 53°57' E 007°44'1515.1
2015-Apr-13 00:33N 53°53' E 007°19'1615.7
2015-Apr-12 23:33N 53°50' E 006°53'1815.6
2015-Apr-12 22:25N 53°46' E 006°24'1315.1
2015-Apr-12 21:33N 53°42' E 006°03'1515.4
2015-Apr-12 20:33N 53°37' E 005°38'1615.7
2015-Apr-12 19:33N 53°32' E 005°13'1515.5
2015-Apr-12 18:33N 53°26' E 004°49'1515.4
2015-Apr-12 17:33N 53°14' E 004°34'1615.8
2015-Apr-12 16:33N 52°60' E 004°21'1515.3
2015-Apr-12 15:33N 52°47' E 004°09'1615.8
2015-Apr-12 14:33N 52°35' E 003°51'1414.5
2015-Apr-12 13:33N 52°24' E 003°35'1414.3
2015-Apr-12 12:33N 52°14' E 003°18'1514.6
2015-Apr-12 11:33N 52°04' E 003°01'1715.0
2015-Apr-12 10:24N 51°51' E 002°43'1315.2
2015-Apr-12 09:33N 51°41' E 002°30'1515.5
2015-Apr-12 08:33N 51°30' E 002°13'1615.9
2015-Apr-12 07:33N 51°18' E 001°56'1616.3
2015-Apr-12 06:34N 51°05' E 001°40'1110.5
2015-Apr-12 05:33N 51°03' E 001°57'9 8.4
2015-Apr-12 04:27N 51°00' E 002°11'0 0.0
2015-Apr-12 03:33N 51°00' E 002°11'0 0.0
2015-Apr-12 02:33N 51°00' E 002°11'0 0.0
2015-Apr-12 01:30N 51°00' E 002°11'0 0.0
2015-Apr-12 00:30N 51°00' E 002°11'0 0.0
2015-Apr-11 23:30N 51°00' E 002°11'0 0.0
2015-Apr-11 22:33N 51°00' E 002°11'0 0.0
2015-Apr-11 21:30N 51°00' E 002°11'0 0.0
2015-Apr-11 20:30N 51°00' E 002°11'0 0.0
2015-Apr-11 19:33N 51°00' E 002°11'4 4.3
2015-Apr-11 18:34N 51°03' E 002°05'1413.8
2015-Apr-11 17:33N 51°02' E 001°43'1212.4
2015-Apr-11 16:33N 50°54' E 001°29'1818.1
2015-Apr-11 15:33N 50°38' E 001°16'2020.4
2015-Apr-11 14:33N 50°25' E 000°51'4520.6
2015-Apr-11 12:23N 49°50' E 000°07'1619.1
2015-Apr-11 11:34N 49°36' W 000°03'1110.9
2015-Apr-11 10:33N 49°28' E 000°08'2 1.7
2015-Apr-11 09:31N 49°27' E 000°10'0 0.0
2015-Apr-11 08:31N 49°27' E 000°10'0 0.0
2015-Apr-11 07:31N 49°27' E 000°10'0 0.0
2015-Apr-11 06:31N 49°27' E 000°10'0 0.0
2015-Apr-11 05:31N 49°27' E 000°10'0 0.0
2015-Apr-11 04:31N 49°27' E 000°10'0 0.0
2015-Apr-11 03:31N 49°27' E 000°10'0 0.0
2015-Apr-11 02:31N 49°27' E 000°10'0 0.0
2015-Apr-11 01:31N 49°27' E 000°10'0 0.0
2015-Apr-11 00:31N 49°27' E 000°10'0 0.0
2015-Apr-10 23:31N 49°27' E 000°10'0 0.0
2015-Apr-10 22:31N 49°27' E 000°10'0 0.0
2015-Apr-10 21:31N 49°27' E 000°10'0 0.0
2015-Apr-10 20:31N 49°27' E 000°10'0 0.0
2015-Apr-10 19:31N 49°27' E 000°10'0 0.0
2015-Apr-10 18:31N 49°27' E 000°10'0 0.0
2015-Apr-10 17:31N 49°27' E 000°10'0 0.0
2015-Apr-10 16:31N 49°27' E 000°10'0 0.0
2015-Apr-10 15:31N 49°27' E 000°10'0 0.0
2015-Apr-10 14:31N 49°27' E 000°10'0 0.0
2015-Apr-10 13:31N 49°27' E 000°10'0 0.0
2015-Apr-10 12:31N 49°27' E 000°10'0 0.0
2015-Apr-10 11:31N 49°27' E 000°10'0 0.0
2015-Apr-10 10:31N 49°27' E 000°10'0 0.0
2015-Apr-10 09:32N 49°27' E 000°10'2 2.2
2015-Apr-10 08:33N 49°28' E 000°07'1110.9
2015-Apr-10 07:33N 49°32' W 000°09'1312.7
2015-Apr-10 06:34N 49°36' W 000°27'1212.4
2015-Apr-10 05:33N 49°43' W 000°43'1 0.8
2015-Apr-10 04:33N 49°42' W 000°42'6 5.5
2015-Apr-10 03:33N 49°37' W 000°42'1111.1
2015-Apr-10 02:33N 49°44' W 000°55'1313.2
2015-Apr-10 01:33N 49°49' W 001°14'1414.3
2015-Apr-10 00:33N 49°53' W 001°35'  
Track history (hours):
 
Tides and Currents Weather Stations Pressure Air Temp Water Temp Dewpoint Dewpoint Depression Visibility Wind Speed Wind Dir Waves Ship Positions

CMA CGM Columba

Last reported at 2015-Apr-20 00:31 UTC. Time now 2015-Apr-20 00:46 UTC.
Position N 49°27' E 000°10'.

Length 363 m; draft 14.1 m.

Type: Ship (hazmat cat A). MMSI: 235077448.

Date/timePositionNaut miles runAvg speedWind from/ knotsBaromVisibWave heightAir tempDewpointWater temp
2015-Apr-20 00:31N 49°27' E 000°10'0 0.0
2015-Apr-19 23:31N 49°27' E 000°10'0 0.0
2015-Apr-19 22:31N 49°27' E 000°10'0 0.1
2015-Apr-19 21:33N 49°27' E 000°10'3 2.6
2015-Apr-19 20:33N 49°28' E 000°06'1111.0
2015-Apr-19 19:34N 49°32' W 000°10'7 6.6
2015-Apr-19 18:33N 49°35' W 000°18'1211.9
2015-Apr-19 17:33N 49°46' W 000°25'1211.2
2015-Apr-19 16:27N 49°58' W 000°33'1910.3
2015-Apr-19 14:33N 50°16' W 000°45'1111.2
2015-Apr-19 13:33N 50°26' W 000°51'1110.7
2015-Apr-19 12:33N 50°36' W 000°57'9 8.9
2015-Apr-19 11:33N 50°44' W 001°04'1010.2
2015-Apr-19 10:34N 50°49' W 001°18'7 7.1
2015-Apr-19 09:33N 50°54' W 001°25'1 0.8
2015-Apr-19 08:32N 50°54' W 001°27'0 0.0
2015-Apr-19 07:31N 50°54' W 001°27'0 0.0
2015-Apr-19 06:31N 50°54' W 001°27'0 0.0
2015-Apr-19 05:31N 50°54' W 001°27'0 0.0
2015-Apr-19 04:31N 50°54' W 001°27'0 0.0
2015-Apr-19 03:31N 50°54' W 001°27'0 0.0
2015-Apr-19 02:32N 50°54' W 001°27'0 0.0
2015-Apr-19 01:28N 50°54' W 001°27'0 0.0
2015-Apr-19 00:32N 50°54' W 001°27'0 0.0
2015-Apr-18 23:31N 50°54' W 001°27'0 0.0
2015-Apr-18 22:31N 50°54' W 001°27'0 0.0
2015-Apr-18 21:31N 50°54' W 001°27'0 0.0
2015-Apr-18 20:32N 50°54' W 001°27'0 0.0
2015-Apr-18 19:31N 50°54' W 001°27'0 0.0
2015-Apr-18 18:32N 50°54' W 001°27'0 0.0
2015-Apr-18 17:31N 50°54' W 001°27'0 0.0
2015-Apr-18 16:31N 50°54' W 001°27'0 0.0
2015-Apr-18 15:29N 50°54' W 001°27'0 0.0
2015-Apr-18 14:32N 50°54' W 001°27'0 0.2
2015-Apr-18 13:34N 50°54' W 001°26'7 6.8
2015-Apr-18 12:34N 50°50' W 001°19'1111.4
2015-Apr-18 11:34N 50°44' W 001°03'1110.8
2015-Apr-18 10:34N 50°35' W 000°53'1918.7
2015-Apr-18 09:33N 50°32' W 000°24'2618.4
2015-Apr-18 08:09N 50°36' E 000°17'1016.3
2015-Apr-18 07:33N 50°38' E 000°31'1716.8
2015-Apr-18 06:33N 50°47' E 000°54'1817.9
2015-Apr-18 05:34N 50°58' E 001°16'1919.4
2015-Apr-18 04:34N 51°10' E 001°40'1818.4
2015-Apr-18 03:33N 51°25' E 001°59'1817.8
2015-Apr-18 02:33N 51°22' E 002°27'1313.1
2015-Apr-18 01:33N 51°25' E 002°47'1414.0
2015-Apr-18 00:34N 51°23' E 003°10'3 3.0
2015-Apr-17 23:33N 51°20' E 003°12'0 0.0
2015-Apr-17 22:33N 51°20' E 003°12'0 0.0
2015-Apr-17 21:33N 51°20' E 003°12'0 0.0
2015-Apr-17 20:33N 51°20' E 003°12'0 0.0
2015-Apr-17 19:33N 51°20' E 003°12'0 0.0
2015-Apr-17 18:33N 51°20' E 003°12'0 0.0
2015-Apr-17 17:33N 51°20' E 003°12'0 0.0
2015-Apr-17 16:33N 51°20' E 003°12'0 0.0
2015-Apr-17 15:33N 51°20' E 003°12'0 0.0
2015-Apr-17 14:33N 51°20' E 003°12'0 0.0
2015-Apr-17 13:33N 51°20' E 003°12'0 0.0
2015-Apr-17 12:33N 51°20' E 003°12'0 0.0
2015-Apr-17 11:33N 51°20' E 003°12'0 0.0
2015-Apr-17 10:33N 51°20' E 003°12'0 0.0
2015-Apr-17 09:33N 51°20' E 003°12'0 0.0
2015-Apr-17 08:33N 51°20' E 003°12'1 1.3
2015-Apr-17 07:34N 51°22' E 003°12'9 9.2
2015-Apr-17 06:34N 51°27' E 002°60'2120.5
2015-Apr-17 05:33N 51°46' E 003°14'1919.1
2015-Apr-17 04:33N 52°03' E 003°29'1616.2
2015-Apr-17 03:33N 52°02' E 003°55'8 8.2
2015-Apr-17 02:33N 51°57' E 004°05'1 1.2
2015-Apr-17 01:31N 51°57' E 004°03'0 0.0
2015-Apr-17 00:31N 51°57' E 004°03'0 0.0
2015-Apr-16 23:31N 51°57' E 004°03'0 0.0
2015-Apr-16 22:31N 51°57' E 004°03'0 0.0
2015-Apr-16 21:31N 51°57' E 004°03'0 0.0
2015-Apr-16 20:33N 51°57' E 004°03'0 0.0
2015-Apr-16 19:31N 51°57' E 004°03'0 0.0
2015-Apr-16 18:28N 51°57' E 004°03'0 0.0
2015-Apr-16 17:31N 51°57' E 004°03'0 0.0
2015-Apr-16 16:28N 51°57' E 004°03'0 0.0
2015-Apr-16 15:31N 51°57' E 004°03'0 0.0
2015-Apr-16 14:31N 51°57' E 004°03'0 0.0
2015-Apr-16 13:31N 51°57' E 004°03'0 0.0
2015-Apr-16 12:31N 51°57' E 004°03'0 0.0
2015-Apr-16 11:31N 51°57' E 004°03'0 0.0
2015-Apr-16 10:31N 51°57' E 004°03'0 0.0
2015-Apr-16 09:31N 51°57' E 004°03'0 0.0
2015-Apr-16 08:31N 51°57' E 004°03'0 0.0
2015-Apr-16 07:31N 51°57' E 004°03'0 0.0
2015-Apr-16 06:33N 51°57' E 004°03'0 0.0
2015-Apr-16 05:31N 51°57' E 004°03'0 0.0
2015-Apr-16 04:31N 51°57' E 004°03'0 0.0
2015-Apr-16 03:31N 51°57' E 004°03'0 0.0
2015-Apr-16 02:31N 51°57' E 004°03'0 0.0
2015-Apr-16 01:31N 51°57' E 004°03'0 0.0
2015-Apr-16 00:28N 51°57' E 004°03'0 0.0
2015-Apr-15 23:31N 51°57' E 004°03'0 0.0
2015-Apr-15 22:28N 51°57' E 004°03'0 0.0
2015-Apr-15 21:31N 51°57' E 004°03'0 0.0
2015-Apr-15 20:25N 51°57' E 004°03'0 0.0
2015-Apr-15 19:31N 51°57' E 004°03'0 0.0
2015-Apr-15 18:31N 51°57' E 004°03'0 0.0
2015-Apr-15 17:28N 51°57' E 004°03'0 0.0
2015-Apr-15 16:31N 51°57' E 004°03'0 0.0
2015-Apr-15 15:31N 51°57' E 004°03'2 2.2
2015-Apr-15 14:33N 51°59' E 004°05'1111.5
2015-Apr-15 13:33N 52°02' E 003°47'1313.1
2015-Apr-15 12:33N 52°16' E 003°47'1515.0
2015-Apr-15 11:33N 52°30' E 003°51'1514.5
2015-Apr-15 10:33N 52°45' E 003°55'1413.7
2015-Apr-15 09:33N 52°58' E 004°01'1515.0
2015-Apr-15 08:33N 53°08' E 004°20'1515.2
2015-Apr-15 07:33N 53°21' E 004°31'1414.4
2015-Apr-15 06:33N 53°31' E 004°49'1414.2
2015-Apr-15 05:33N 53°37' E 005°11'1313.0
2015-Apr-15 04:34N 53°40' E 005°32'1312.9
2015-Apr-15 03:34N 53°44' E 005°53'1313.0
2015-Apr-15 02:33N 53°49' E 006°14'1413.7
2015-Apr-15 01:34N 53°52' E 006°36'1515.3
2015-Apr-15 00:34N 53°56' E 007°01'1918.9
2015-Apr-14 23:33N 54°01' E 007°32'1818.4
2015-Apr-14 22:33N 54°01' E 008°04'1312.6
2015-Apr-14 21:33N 53°59' E 008°25'1515.0
2015-Apr-14 20:33N 53°51' E 008°46'1414.2
2015-Apr-14 19:33N 53°53' E 009°10'1212.0
2015-Apr-14 18:33N 53°45' E 009°25'1111.1
2015-Apr-14 17:34N 53°36' E 009°36'1010.0
2015-Apr-14 16:34N 53°33' E 009°52'2 1.9
2015-Apr-14 15:33N 53°32' E 009°55'0 0.0
2015-Apr-14 14:33N 53°32' E 009°55'0 0.0
2015-Apr-14 13:33N 53°32' E 009°55'0 0.0
2015-Apr-14 12:33N 53°32' E 009°55'0 0.0
2015-Apr-14 11:33N 53°32' E 009°55'0 0.0
2015-Apr-14 10:27N 53°32' E 009°55'0 0.0
2015-Apr-14 09:33N 53°32' E 009°55'0 0.0
2015-Apr-14 08:33N 53°32' E 009°55'0 0.0
2015-Apr-14 07:33N 53°32' E 009°55'0 0.0
2015-Apr-14 06:33N 53°32' E 009°55'0 0.0
2015-Apr-14 05:33N 53°32' E 009°55'0 0.0
2015-Apr-14 04:33N 53°32' E 009°55'0 0.0
2015-Apr-14 03:32N 53°32' E 009°55'0 0.0
2015-Apr-14 01:18N 53°32' E 009°55'0 0.0
2015-Apr-14 00:33N 53°32' E 009°55'0 0.0
2015-Apr-13 23:33N 53°32' E 009°55'0 0.0
2015-Apr-13 22:30N 53°32' E 009°55'0 0.0
2015-Apr-13 21:33N 53°32' E 009°55'0 0.0
2015-Apr-13 20:33N 53°32' E 009°55'0 0.0
2015-Apr-13 19:33N 53°32' E 009°55'0 0.0
2015-Apr-13 18:33N 53°32' E 009°55'0 0.0
2015-Apr-13 17:33N 53°32' E 009°55'0 0.0
2015-Apr-13 16:33N 53°32' E 009°55'0 0.0
2015-Apr-13 15:27N 53°32' E 009°55'0 0.0
2015-Apr-13 14:33N 53°32' E 009°55'0 0.0
2015-Apr-13 13:33N 53°32' E 009°55'0 0.0
2015-Apr-13 12:33N 53°32' E 009°55'0 0.0
2015-Apr-13 11:30N 53°32' E 009°55'0 0.0
2015-Apr-13 10:33N 53°32' E 009°55'0 0.2
2015-Apr-13 09:33N 53°32' E 009°54'5 5.2
2015-Apr-13 08:34N 53°34' E 009°46'1010.0
2015-Apr-13 07:34N 53°39' E 009°31'1212.4
2015-Apr-13 06:34N 53°50' E 009°22'1110.5
2015-Apr-13 05:33N 53°52' E 009°04'1212.4
2015-Apr-13 04:33N 53°52' E 008°43'1514.8
2015-Apr-13 03:33N 53°59' E 008°21'1616.0
2015-Apr-13 02:33N 53°58' E 007°54'6 6.1
2015-Apr-13 01:33N 53°57' E 007°44'1515.1
2015-Apr-13 00:33N 53°53' E 007°19'1615.7
2015-Apr-12 23:33N 53°50' E 006°53'1815.6
2015-Apr-12 22:25N 53°46' E 006°24'1315.1
2015-Apr-12 21:33N 53°42' E 006°03'1515.4
2015-Apr-12 20:33N 53°37' E 005°38'1615.7
2015-Apr-12 19:33N 53°32' E 005°13'1515.5
2015-Apr-12 18:33N 53°26' E 004°49'1515.4
2015-Apr-12 17:33N 53°14' E 004°34'1615.8
2015-Apr-12 16:33N 52°60' E 004°21'1515.3
2015-Apr-12 15:33N 52°47' E 004°09'1615.8
2015-Apr-12 14:33N 52°35' E 003°51'1414.5
2015-Apr-12 13:33N 52°24' E 003°35'1414.3
2015-Apr-12 12:33N 52°14' E 003°18'1514.6
2015-Apr-12 11:33N 52°04' E 003°01'1715.0
2015-Apr-12 10:24N 51°51' E 002°43'1315.2
2015-Apr-12 09:33N 51°41' E 002°30'1515.5
2015-Apr-12 08:33N 51°30' E 002°13'1615.9
2015-Apr-12 07:33N 51°18' E 001°56'1616.3
2015-Apr-12 06:34N 51°05' E 001°40'1110.5
2015-Apr-12 05:33N 51°03' E 001°57'9 8.4
2015-Apr-12 04:27N 51°00' E 002°11'0 0.0
2015-Apr-12 03:33N 51°00' E 002°11'0 0.0
2015-Apr-12 02:33N 51°00' E 002°11'0 0.0
2015-Apr-12 01:30N 51°00' E 002°11'0 0.0
2015-Apr-12 00:30N 51°00' E 002°11'0 0.0
2015-Apr-11 23:30N 51°00' E 002°11'0 0.0
2015-Apr-11 22:33N 51°00' E 002°11'0 0.0
2015-Apr-11 21:30N 51°00' E 002°11'0 0.0
2015-Apr-11 20:30N 51°00' E 002°11'0 0.0
2015-Apr-11 19:33N 51°00' E 002°11'4 4.3
2015-Apr-11 18:34N 51°03' E 002°05'1413.8
2015-Apr-11 17:33N 51°02' E 001°43'1212.4
2015-Apr-11 16:33N 50°54' E 001°29'1818.1
2015-Apr-11 15:33N 50°38' E 001°16'2020.4
2015-Apr-11 14:33N 50°25' E 000°51'4520.6
2015-Apr-11 12:23N 49°50' E 000°07'1619.1
2015-Apr-11 11:34N 49°36' W 000°03'1110.9
2015-Apr-11 10:33N 49°28' E 000°08'2 1.7
2015-Apr-11 09:31N 49°27' E 000°10'0 0.0
2015-Apr-11 08:31N 49°27' E 000°10'0 0.0
2015-Apr-11 07:31N 49°27' E 000°10'0 0.0
2015-Apr-11 06:31N 49°27' E 000°10'0 0.0
2015-Apr-11 05:31N 49°27' E 000°10'0 0.0
2015-Apr-11 04:31N 49°27' E 000°10'0 0.0
2015-Apr-11 03:31N 49°27' E 000°10'0 0.0
2015-Apr-11 02:31N 49°27' E 000°10'0 0.0
2015-Apr-11 01:31N 49°27' E 000°10'0 0.0
2015-Apr-11 00:31N 49°27' E 000°10'0 0.0
2015-Apr-10 23:31N 49°27' E 000°10'0 0.0
2015-Apr-10 22:31N 49°27' E 000°10'0 0.0
2015-Apr-10 21:31N 49°27' E 000°10'0 0.0
2015-Apr-10 20:31N 49°27' E 000°10'0 0.0
2015-Apr-10 19:31N 49°27' E 000°10'0 0.0
2015-Apr-10 18:31N 49°27' E 000°10'0 0.0
2015-Apr-10 17:31N 49°27' E 000°10'0 0.0
2015-Apr-10 16:31N 49°27' E 000°10'0 0.0
2015-Apr-10 15:31N 49°27' E 000°10'0 0.0
2015-Apr-10 14:31N 49°27' E 000°10'0 0.0
2015-Apr-10 13:31N 49°27' E 000°10'0 0.0
2015-Apr-10 12:31N 49°27' E 000°10'0 0.0
2015-Apr-10 11:31N 49°27' E 000°10'0 0.0
2015-Apr-10 10:31N 49°27' E 000°10'0 0.0
2015-Apr-10 09:32N 49°27' E 000°10'2 2.2
2015-Apr-10 08:33N 49°28' E 000°07'1110.9
2015-Apr-10 07:33N 49°32' W 000°09'1312.7
2015-Apr-10 06:34N 49°36' W 000°27'1212.4
2015-Apr-10 05:33N 49°43' W 000°43'1 0.8
2015-Apr-10 04:33N 49°42' W 000°42'6 5.5
2015-Apr-10 03:33N 49°37' W 000°42'1111.1
2015-Apr-10 02:33N 49°44' W 000°55'1313.2
2015-Apr-10 01:33N 49°49' W 001°14'1414.3
2015-Apr-10 00:33N 49°53' W 001°35'  

Dump ship's entire track history